Time;durP1;ratioP1;P1;durP2;ratioP2;P2;SDS_P1;SDS_P2;PMS_P1;PMS_P2;Temp;Humidity;BMP_temperature;BMP_pressure;BME280_temperature;BME280_humidity;BME280_pressure;Samples;Min_cycle;Max_cycle;Signal;HPM_P1;HPM_P2
2023/05/26 00:00:05;;;;;;;;;;;;;;;21.61;50.45;102079.28;4999064;28;4057;-66
2023/05/26 00:02:31;;;;;;;;;;;;;;;21.60;50.45;102075.66;4999874;28;4206;-67
2023/05/26 00:04:59;;;;;;;;;;;;;;;21.60;50.38;102080.63;5003024;28;4346;-66
2023/05/26 00:07:25;;;;;;;;;;;;;;;21.59;50.60;102073.38;4998804;28;5088;-66
2023/05/26 00:09:52;;;;;;;;;;;;;;;21.59;50.57;102074.13;5001040;28;4252;-66
2023/05/26 00:12:18;;;;;;;;;;;;;;;21.58;50.47;102078.41;5009765;28;4061;-66
2023/05/26 00:14:46;;;;;;;;;;;;;;;21.59;50.48;102079.88;4999457;28;4064;-66
2023/05/26 00:17:12;;;;;;;;;;;;;;;21.57;50.41;102071.13;4999748;28;4125;-65
2023/05/26 00:19:39;;;;;;;;;;;;;;;21.57;50.28;102082.66;5002258;28;4264;-66
2023/05/26 00:22:05;;;;;;;;;;;;;;;21.57;50.33;102071.13;5001886;28;4376;-67
2023/05/26 00:24:31;;;;;;;;;;;;;;;21.56;50.37;102075.41;5003532;28;4258;-66
2023/05/26 00:26:58;;;;;;;;;;;;;;;21.57;50.38;102076.88;5001994;28;4165;-67
2023/05/26 00:29:24;;;;;;;;;;;;;;;21.56;50.50;102074.66;5003843;28;4160;-67
2023/05/26 00:31:55;;;;;;;;;;;;;;;21.54;50.37;102083.91;4996238;28;4498;-66
2023/05/26 00:34:21;;;;;;;;;;;;;;;21.52;50.23;102078.03;5006247;28;4181;-66
2023/05/26 00:36:48;;;;;;;;;;;;;;;21.52;50.46;102075.88;5009592;28;4363;-67
2023/05/26 00:39:14;;;;;;;;;;;;;;;21.52;50.18;102083.78;5001477;28;3983;-67
2023/05/26 00:41:41;;;;;;;;;;;;;;;21.54;50.44;102081.03;5001294;28;5435;-66
2023/05/26 00:44:07;;;;;;;;;;;;;;;21.54;50.44;102081.03;4999736;28;4247;-67
2023/05/26 00:46:34;;;;;;;;;;;;;;;21.54;50.29;102078.16;5005911;28;4448;-67
2023/05/26 00:49:00;;;;;;;;;;;;;;;21.53;50.35;102076.63;5002834;28;4534;-67
2023/05/26 00:51:26;;;;;;;;;;;;;;;21.53;50.06;102076.63;5002690;28;4134;-67
2023/05/26 00:53:54;;;;;;;;;;;;;;;21.53;50.25;102080.28;5000947;28;4092;-67
2023/05/26 00:56:20;;;;;;;;;;;;;;;21.52;50.14;102080.91;5009465;28;4997;-66
2023/05/26 00:58:46;;;;;;;;;;;;;;;21.52;50.41;102078.03;4999126;28;4039;-67
2023/05/26 01:01:13;;;;;;;;;;;;;;;21.52;50.06;102075.13;5006082;28;4322;-67
2023/05/26 01:03:41;;;;;;;;;;;;;;;21.51;50.10;102079.41;5002820;28;4050;-66
2023/05/26 01:06:08;;;;;;;;;;;;;;;21.52;50.01;102080.91;5004298;28;4181;-67
2023/05/26 01:08:34;;;;;;;;;;;;;;;21.51;50.09;102088.81;5005419;28;4022;-67
2023/05/26 01:11:06;;;;;;;;;;;;;;;21.51;49.96;102076.53;5005398;28;4145;-67
2023/05/26 01:13:34;;;;;;;;;;;;;;;21.48;50.10;102072.00;5003003;28;4220;-66
2023/05/26 01:16:03;;;;;;;;;;;;;;;21.49;50.06;102071.38;5001961;28;3995;-65
2023/05/26 01:18:31;;;;;;;;;;;;;;;21.49;50.30;102067.75;4999084;28;4078;-66
2023/05/26 01:21:07;;;;;;;;;;;;;;;21.46;50.16;102066.88;5003482;28;4070;-67
2023/05/26 01:23:43;;;;;;;;;;;;;;;21.47;50.09;102070.50;5012398;28;4143;-67
2023/05/26 01:26:21;;;;;;;;;;;;;;;21.48;50.44;102063.34;5004840;28;4196;-67
2023/05/26 01:28:49;;;;;;;;;;;;;;;21.46;50.28;102075.53;5004773;28;4032;-66
2023/05/26 01:31:18;;;;;;;;;;;;;;;21.46;50.28;102075.53;4998758;28;4059;-66
2023/05/26 01:33:44;;;;;;;;;;;;;;;21.46;50.27;102074.75;4988793;28;4153;-67
2023/05/26 01:36:11;;;;;;;;;;;;;;;21.47;50.37;102079.16;5006927;28;4225;-67
2023/05/26 01:38:39;;;;;;;;;;;;;;;21.46;50.15;102066.13;5001457;28;3913;-67
2023/05/26 01:41:10;;;;;;;;;;;;;;;21.45;50.20;102076.91;5004039;28;4166;-67
2023/05/26 01:43:39;;;;;;;;;;;;;;;21.44;49.97;102077.50;5011824;28;3947;-67
2023/05/26 01:46:07;;;;;;;;;;;;;;;21.45;50.02;102076.16;5011449;28;4436;-67
2023/05/26 01:48:34;;;;;;;;;;;;;;;21.45;49.99;102081.91;5000157;28;4294;-67
2023/05/26 01:51:00;;;;;;;;;;;;;;;21.45;50.05;102076.16;5008857;28;4126;-67
2023/05/26 01:53:28;;;;;;;;;;;;;;;21.44;50.20;102075.41;4988733;28;4327;-67
2023/05/26 01:55:56;;;;;;;;;;;;;;;21.44;50.28;102071.75;5003968;28;4176;-67
2023/05/26 01:58:25;;;;;;;;;;;;;;;21.43;50.12;102079.66;5001520;28;4185;-67
2023/05/26 02:00:54;;;;;;;;;;;;;;;21.43;50.02;102067.38;5011847;28;4057;-67
2023/05/26 02:03:21;;;;;;;;;;;;;;;21.42;50.28;102075.28;5000594;28;4059;-67
2023/05/26 02:05:47;;;;;;;;;;;;;;;21.42;50.27;102080.28;5014127;28;4205;-66
2023/05/26 02:08:14;;;;;;;;;;;;;;;21.42;50.08;102083.19;5018814;28;4194;-67
2023/05/26 02:10:40;;;;;;;;;;;;;;;21.42;50.07;102083.19;5009323;28;3952;-67
2023/05/26 02:13:07;;;;;;;;;;;;;;;21.41;50.01;102088.16;5000621;28;4186;-67
2023/05/26 02:15:33;;;;;;;;;;;;;;;21.40;50.31;102085.91;5019144;28;4132;-68
2023/05/26 02:18:02;;;;;;;;;;;;;;;21.40;50.23;102083.03;5002479;28;4314;-67
2023/05/26 02:20:29;;;;;;;;;;;;;;;21.40;49.98;102088.78;5006868;28;4020;-68
2023/05/26 02:22:56;;;;;;;;;;;;;;;21.39;49.99;102093.78;5014318;28;4894;-68
2023/05/26 02:25:22;;;;;;;;;;;;;;;21.39;49.98;102090.16;5007539;28;4285;-66
2023/05/26 02:27:51;;;;;;;;;;;;;;;21.39;50.00;102096.66;5002089;28;4341;-68
2023/05/26 02:30:17;;;;;;;;;;;;;;;21.39;50.33;102104.56;4999279;28;4109;-67
2023/05/26 02:32:44;;;;;;;;;;;;;;;21.39;50.19;102101.69;5008784;28;4076;-68
2023/05/26 02:35:10;;;;;;;;;;;;;;;21.37;50.20;102110.94;5011864;28;4014;-68
2023/05/26 02:37:38;;;;;;;;;;;;;;;21.37;50.25;102104.44;5004262;28;4151;-68
2023/05/26 02:40:05;;;;;;;;;;;;;;;21.37;50.17;102110.19;5005212;28;4214;-68
2023/05/26 02:42:33;;;;;;;;;;;;;;;21.36;50.18;102112.31;5009826;28;4046;-68
2023/05/26 02:44:59;;;;;;;;;;;;;;;21.33;50.00;102114.34;5001306;28;4265;-68
2023/05/26 02:47:26;;;;;;;;;;;;;;;21.36;50.26;102108.69;4997838;28;4191;-68
2023/05/26 02:49:52;;;;;;;;;;;;;;;21.33;50.19;102105.69;5000081;28;4205;-68
2023/05/26 02:52:19;;;;;;;;;;;;;;;21.34;50.17;102106.44;5001288;28;3950;-68
2023/05/26 02:54:45;;;;;;;;;;;;;;;21.33;49.89;102111.44;5005132;28;4092;-67
2023/05/26 02:57:11;;;;;;;;;;;;;;;21.31;50.15;102111.31;5012348;28;4954;-68
2023/05/26 02:59:38;;;;;;;;;;;;;;;21.31;50.22;102107.69;5008065;28;3984;-68
2023/05/26 03:02:04;;;;;;;;;;;;;;;21.30;50.16;102109.81;5007766;28;4165;-68
2023/05/26 03:04:31;;;;;;;;;;;;;;;21.31;49.95;102119.97;5007412;28;4207;-67
2023/05/26 03:06:57;;;;;;;;;;;;;;;21.30;50.11;102112.72;5007721;28;4332;-67
2023/05/26 03:09:29;;;;;;;;;;;;;;;21.31;49.96;102119.22;4988346;28;4039;-68
2023/05/26 03:11:55;;;;;;;;;;;;;;;21.29;50.05;102116.94;5007295;28;4158;-68
2023/05/26 03:14:22;;;;;;;;;;;;;;;21.30;50.10;102115.59;5009528;28;5203;-68
2023/05/26 03:16:51;;;;;;;;;;;;;;;21.29;50.06;102119.84;5007557;28;3941;-68
2023/05/26 03:19:18;;;;;;;;;;;;;;;21.28;50.17;102115.47;5000138;28;3959;-68
2023/05/26 03:21:46;;;;;;;;;;;;;;;21.29;49.91;102116.22;5001031;28;4251;-68
2023/05/26 03:24:16;;;;;;;;;;;;;;;21.28;50.14;102118.34;5003372;28;4173;-68
2023/05/26 03:26:42;;;;;;;;;;;;;;;21.27;50.09;102119.69;5013388;28;4137;-68
2023/05/26 03:29:09;;;;;;;;;;;;;;;21.26;50.01;102123.97;5004718;28;4148;-68
2023/05/26 03:31:35;;;;;;;;;;;;;;;21.26;50.01;102126.84;5004154;28;4118;-68
2023/05/26 03:34:02;;;;;;;;;;;;;;;21.26;50.01;102129.75;5002984;28;4205;-68
2023/05/26 03:36:28;;;;;;;;;;;;;;;21.26;49.99;102129.75;5006620;28;4032;-68
2023/05/26 03:39:05;;;;;;;;;;;;;;;21.24;50.01;102126.72;5001998;28;4134;-68
2023/05/26 03:41:33;;;;;;;;;;;;;;;21.24;49.93;102137.50;5005991;28;4253;-68
2023/05/26 03:44:00;;;;;;;;;;;;;;;21.24;49.92;102135.38;5011577;28;4023;-68
2023/05/26 03:46:27;;;;;;;;;;;;;;;21.24;50.13;102137.50;5016507;28;4042;-68
2023/05/26 03:48:53;;;;;;;;;;;;;;;21.23;49.92;102142.50;4999499;28;4147;-68
2023/05/26 03:51:21;;;;;;;;;;;;;;;21.24;50.24;102143.25;5007288;28;4250;-68
2023/05/26 03:53:47;;;;;;;;;;;;;;;21.23;49.98;102142.50;4988063;28;4154;-67
2023/05/26 03:56:14;;;;;;;;;;;;;;;21.22;49.73;102149.66;5003265;28;4293;-67
2023/05/26 03:58:42;;;;;;;;;;;;;;;21.22;49.91;102146.75;5000182;28;4165;-68
2023/05/26 04:01:09;;;;;;;;;;;;;;;21.21;49.87;102142.38;5006234;28;4300;-67
2023/05/26 04:03:35;;;;;;;;;;;;;;;21.22;49.75;102146.00;5004571;28;4143;-68
2023/05/26 04:06:03;;;;;;;;;;;;;;;21.21;49.97;102148.16;5004626;28;4142;-67
2023/05/26 04:08:30;;;;;;;;;;;;;;;21.21;49.99;102150.25;5001051;28;3991;-68
2023/05/26 04:10:56;;;;;;;;;;;;;;;21.21;49.92;102156.00;4998558;28;4128;-68
2023/05/26 04:13:23;;;;;;;;;;;;;;;21.21;49.99;102156.78;4998798;28;5455;-68
2023/05/26 04:15:50;;;;;;;;;;;;;;;21.21;49.87;102150.25;5004809;28;4170;-68
2023/05/26 04:18:16;;;;;;;;;;;;;;;21.21;49.74;102151.03;5021100;28;4113;-68
2023/05/26 04:20:43;;;;;;;;;;;;;;;21.20;49.91;102155.28;5005086;28;4214;-67
2023/05/26 04:23:10;;;;;;;;;;;;;;;21.20;50.05;102155.28;5001885;28;4175;-67
2023/05/26 04:25:37;;;;;;;;;;;;;;;21.20;49.89;102161.03;5006833;28;3976;-67
2023/05/26 04:28:19;;;;;;;;;;;;;;;21.20;50.24;102163.16;5006036;28;4100;-67
2023/05/26 04:31:01;;;;;;;;;;;;;;;21.18;50.00;102172.44;5009802;28;4067;-67
2023/05/26 04:33:57;;;;;;;;;;;;;;;21.18;49.91;102168.78;5027826;28;4228;-67
2023/05/26 04:36:39;;;;;;;;;;;;;;;21.18;49.83;102175.31;5007331;28;4150;-67
2023/05/26 04:39:06;;;;;;;;;;;;;;;21.18;49.88;102183.94;5004127;28;4226;-67
2023/05/26 04:41:35;;;;;;;;;;;;;;;21.18;49.90;102175.31;5008043;28;4362;-67
2023/05/26 04:44:02;;;;;;;;;;;;;;;21.18;49.95;102175.31;5014652;28;4066;-67
2023/05/26 04:46:28;;;;;;;;;;;;;;;21.18;49.99;102181.06;5007716;28;4065;-67
2023/05/26 04:48:58;;;;;;;;;;;;;;;21.18;49.99;102181.06;5006920;28;4119;-67
2023/05/26 04:51:24;;;;;;;;;;;;;;;21.17;50.00;102173.81;5009829;28;4076;-67
2023/05/26 04:53:51;;;;;;;;;;;;;;;21.17;50.08;102173.06;5010229;28;4238;-67
2023/05/26 04:56:17;;;;;;;;;;;;;;;21.16;50.19;102169.41;5004572;28;4198;-67
2023/05/26 04:58:51;;;;;;;;;;;;;;;21.15;50.23;102170.81;5010471;28;5077;-69
2023/05/26 05:01:17;;;;;;;;;;;;;;;20.96;48.99;102170.97;5008568;28;4386;-67
2023/05/26 05:04:10;;;;;;;;;;;;;;;19.94;45.84;102174.31;4997718;28;4152;-66
2023/05/26 05:06:44;;;;;;;;;;;;;;;19.46;46.08;102175.25;5001809;28;4127;-67
2023/05/26 05:09:11;;;;;;;;;;;;;;;19.72;45.85;102172.75;5005811;28;4214;-66
2023/05/26 05:11:37;;;;;;;;;;;;;;;19.96;45.22;102165.84;5002288;28;4025;-66
2023/05/26 05:14:04;;;;;;;;;;;;;;;20.32;45.00;102175.44;5016951;28;4040;-66
2023/05/26 05:16:31;;;;;;;;;;;;;;;20.54;44.89;102172.56;5009175;28;4017;-66
2023/05/26 05:18:58;;;;;;;;;;;;;;;20.65;44.89;102172.63;5010541;28;4013;-66
2023/05/26 05:21:24;;;;;;;;;;;;;;;20.75;44.79;102175.41;5020120;28;4202;-74
2023/05/26 05:23:54;;;;;;;;;;;;;;;20.80;45.20;102171.44;5010509;28;3940;-70
2023/05/26 05:26:22;;;;;;;;;;;;;;;20.83;45.22;102170.19;5005338;28;4124;-68
2023/05/26 05:28:49;;;;;;;;;;;;;;;20.84;45.57;102177.47;5005549;28;4030;-69
2023/05/26 05:31:27;;;;;;;;;;;;;;;20.85;45.98;102173.22;5016618;28;4212;-69
2023/05/26 05:33:53;;;;;;;;;;;;;;;20.87;46.01;102182.00;5009203;28;4231;-68
2023/05/26 05:36:20;;;;;;;;;;;;;;;20.86;46.46;102180.47;5012577;28;4002;-68
2023/05/26 05:38:47;;;;;;;;;;;;;;;20.86;46.61;102186.22;5005832;28;4201;-68
2023/05/26 05:41:15;;;;;;;;;;;;;;;20.87;47.46;102187.75;5015659;28;5442;-68
2023/05/26 05:43:41;;;;;;;;;;;;;;;20.88;47.37;102194.25;5003399;28;4442;-68
2023/05/26 05:46:08;;;;;;;;;;;;;;;20.87;47.88;102187.00;5011536;28;4239;-68
2023/05/26 05:48:42;;;;;;;;;;;;;;;20.85;48.39;102193.38;5007853;28;4310;-68
2023/05/26 05:51:14;;;;;;;;;;;;;;;20.87;48.47;102190.63;5005396;28;4538;-68
2023/05/26 05:53:41;;;;;;;;;;;;;;;20.87;48.32;102198.53;5004387;28;4102;-68
2023/05/26 05:56:08;;;;;;;;;;;;;;;20.87;48.43;102201.41;5007317;28;4153;-68
2023/05/26 05:58:34;;;;;;;;;;;;;;;20.60;48.23;102210.41;5007119;28;4109;-67
2023/05/26 06:01:01;;;;;;;;;;;;;;;19.04;49.01;102211.03;5001456;28;4174;-68
2023/05/26 06:03:27;;;;;;;;;;;;;;;18.63;49.68;102199.41;5007504;28;4389;-68
2023/05/26 06:05:53;;;;;;;;;;;;;;;18.49;49.72;102209.81;5014882;28;4090;-68
2023/05/26 06:08:20;;;;;;;;;;;;;;;18.34;49.72;102205.09;5006035;28;4260;-67
2023/05/26 06:10:46;;;;;;;;;;;;;;;18.00;50.27;102201.88;5019170;28;4134;-68
2023/05/26 06:13:13;;;;;;;;;;;;;;;18.66;49.28;102200.28;5011608;28;4096;-67
2023/05/26 06:15:40;;;;;;;;;;;;;;;19.36;47.85;102206.16;4995498;28;4053;-67
2023/05/26 06:18:07;;;;;;;;;;;;;;;19.80;47.33;102207.84;5005536;28;4739;-68
2023/05/26 06:20:33;;;;;;;;;;;;;;;20.04;46.70;102206.66;5008798;28;4211;-68
2023/05/26 06:23:00;;;;;;;;;;;;;;;20.22;46.93;102206.38;5011666;28;4949;-67
2023/05/26 06:25:27;;;;;;;;;;;;;;;20.29;47.07;102217.72;5013861;28;4375;-68
2023/05/26 06:27:53;;;;;;;;;;;;;;;20.34;47.01;102207.25;5009005;28;4212;-67
2023/05/26 06:30:20;;;;;;;;;;;;;;;20.39;46.94;102209.00;5010507;28;4237;-67
2023/05/26 06:32:54;;;;;;;;;;;;;;;20.40;47.10;102210.50;5009703;28;4099;-68
2023/05/26 06:35:20;;;;;;;;;;;;;;;20.48;47.12;102205.31;5005971;28;4269;-68
2023/05/26 06:37:47;;;;;;;;;;;;;;;20.49;47.27;102201.06;5017774;28;4089;-68
2023/05/26 06:40:13;;;;;;;;;;;;;;;20.50;47.30;102205.44;5012219;28;4099;-68
2023/05/26 06:42:40;;;;;;;;;;;;;;;20.53;47.39;102205.59;5015554;28;4132;-68
2023/05/26 06:45:07;;;;;;;;;;;;;;;20.54;47.41;102204.22;5007026;28;4048;-68
2023/05/26 06:47:36;;;;;;;;;;;;;;;20.55;47.50;102202.81;5003546;28;4194;-67
2023/05/26 06:50:09;;;;;;;;;;;;;;;20.57;47.42;102200.13;5016312;28;4506;-68
2023/05/26 06:52:36;;;;;;;;;;;;;;;20.58;47.54;102207.41;5007317;28;3960;-68
2023/05/26 06:55:03;;;;;;;;;;;;;;;20.59;47.47;102206.00;5015568;28;4301;-68
2023/05/26 06:57:30;;;;;;;;;;;;;;;20.62;47.65;102207.66;5005265;28;5029;-68
2023/05/26 06:59:56;;;;;;;;;;;;;;;20.62;47.78;102207.66;5017798;28;4130;-68
2023/05/26 07:02:23;;;;;;;;;;;;;;;20.63;47.66;102209.16;5015224;28;4366;-68
2023/05/26 07:05:09;;;;;;;;;;;;;;;20.65;47.76;102212.19;5008455;28;3986;-68
2023/05/26 07:07:36;;;;;;;;;;;;;;;20.67;47.96;102215.19;5024712;28;4141;-68
2023/05/26 07:10:03;;;;;;;;;;;;;;;20.68;48.01;102216.69;5016323;28;4100;-68
2023/05/26 07:12:30;;;;;;;;;;;;;;;20.68;48.00;102210.94;5011677;28;4085;-68
2023/05/26 07:15:13;;;;;;;;;;;;;;;20.70;48.05;102213.94;5004818;28;4245;-68
2023/05/26 07:17:39;;;;;;;;;;;;;;;20.70;47.94;102213.94;5013909;28;4137;-68
2023/05/26 07:20:06;;;;;;;;;;;;;;;20.71;47.93;102210.47;5009051;28;4076;-68
2023/05/26 07:22:33;;;;;;;;;;;;;;;20.73;48.04;102212.72;5012533;28;4001;-67
2023/05/26 07:25:09;;;;;;;;;;;;;;;20.73;48.11;102212.72;5014479;28;4112;-69
2023/05/26 07:27:42;;;;;;;;;;;;;;;20.73;48.20;102212.72;5007832;28;4746;-69
2023/05/26 07:30:09;;;;;;;;;;;;;;;20.75;48.29;102214.97;5013178;28;4328;-69
2023/05/26 07:32:47;;;;;;;;;;;;;;;20.76;48.36;102223.00;5003935;28;4929;-69
2023/05/26 07:35:14;;;;;;;;;;;;;;;20.77;48.27;102221.63;5015101;28;4040;-69
2023/05/26 07:37:41;;;;;;;;;;;;;;;20.78;48.33;102228.91;5008161;28;4306;-69
2023/05/26 07:40:07;;;;;;;;;;;;;;;20.78;48.11;102220.25;5008647;28;4366;-69
2023/05/26 07:42:34;;;;;;;;;;;;;;;20.80;48.31;102222.50;5008366;28;4009;-69
2023/05/26 07:45:01;;;;;;;;;;;;;;;20.79;48.47;102227.50;5005338;28;4330;-69
2023/05/26 07:47:31;;;;;;;;;;;;;;;20.79;48.35;102227.50;5011022;28;4145;-69
2023/05/26 07:49:58;;;;;;;;;;;;;;;20.81;48.54;102236.28;5009417;28;4213;-69
2023/05/26 07:52:24;;;;;;;;;;;;;;;20.82;48.38;102237.03;5007973;28;4355;-69
2023/05/26 07:54:51;;;;;;;;;;;;;;;20.81;48.48;102224.78;5006060;28;4401;-69
2023/05/26 07:57:17;;;;;;;;;;;;;;;20.82;48.23;102232.06;5011978;28;4001;-68
2023/05/26 07:59:55;;;;;;;;;;;;;;;20.83;48.61;102230.66;5010107;28;4254;-69
2023/05/26 08:02:21;;;;;;;;;;;;;;;20.83;48.64;102245.06;5005794;28;4192;-69
2023/05/26 08:04:48;;;;;;;;;;;;;;;20.84;48.32;102240.78;5011481;28;4014;-69
2023/05/26 08:07:14;;;;;;;;;;;;;;;20.84;48.57;102229.28;5004521;28;4516;-69
2023/05/26 08:09:44;;;;;;;;;;;;;;;20.86;48.53;102237.31;5009647;28;4153;-69
2023/05/26 08:12:10;;;;;;;;;;;;;;;20.86;48.49;102228.66;5008175;28;3941;-69
2023/05/26 08:14:37;;;;;;;;;;;;;;;20.86;48.38;102238.06;5001851;28;3989;-69
2023/05/26 08:17:03;;;;;;;;;;;;;;;20.86;48.34;102238.06;5005798;28;4416;-69
2023/05/26 08:19:30;;;;;;;;;;;;;;;20.86;48.51;102232.28;5005787;28;4200;-69
2023/05/26 08:21:56;;;;;;;;;;;;;;;20.87;48.55;102236.69;5008066;28;3970;-69
2023/05/26 08:24:24;;;;;;;;;;;;;;;20.87;48.41;102225.19;5009619;28;4020;-68
2023/05/26 08:26:51;;;;;;;;;;;;;;;20.89;48.31;102225.31;5009496;28;4104;-69
2023/05/26 08:29:17;;;;;;;;;;;;;;;20.88;48.34;102229.56;5006081;28;4514;-68
2023/05/26 08:31:44;;;;;;;;;;;;;;;20.89;48.60;102231.06;5006488;28;4404;-69
2023/05/26 08:34:10;;;;;;;;;;;;;;;20.89;48.33;102219.56;5005692;28;4109;-69
2023/05/26 08:36:37;;;;;;;;;;;;;;;20.91;48.31;102222.56;5006304;28;4209;-69
2023/05/26 08:39:03;;;;;;;;;;;;;;;20.91;48.54;102219.69;5007071;28;4443;-69
2023/05/26 08:41:50;;;;;;;;;;;;;;;20.92;48.32;102217.56;5011825;28;4081;-69
2023/05/26 08:44:17;;;;;;;;;;;;;;;20.92;48.26;102212.56;5004954;28;4120;-69
2023/05/26 08:46:44;;;;;;;;;;;;;;;20.93;48.46;102221.94;5005537;28;3902;-69
2023/05/26 08:49:10;;;;;;;;;;;;;;;20.93;48.56;102219.81;5007259;28;4285;-69
2023/05/26 08:51:37;;;;;;;;;;;;;;;20.95;48.58;102227.09;5009168;28;4082;-69
2023/05/26 08:54:03;;;;;;;;;;;;;;;20.95;48.68;102239.34;5012751;28;4313;-72
2023/05/26 08:56:30;;;;;;;;;;;;;;;20.83;48.55;102227.78;5004202;28;4190;-69
2023/05/26 08:58:56;;;;;;;;;;;;;;;20.76;48.06;102228.75;4999000;28;4215;-69
2023/05/26 09:01:23;;;;;;;;;;;;;;;20.83;47.60;102227.78;4997742;28;4156;-69
2023/05/26 09:03:50;;;;;;;;;;;;;;;20.77;47.51;102224.50;5000861;28;4162;-69
2023/05/26 09:06:16;;;;;;;;;;;;;;;20.82;47.38;102234.16;5000203;28;4014;-68
2023/05/26 09:08:43;;;;;;;;;;;;;;;20.85;47.33;102222.16;5004255;28;3997;-69
2023/05/26 09:11:25;;;;;;;;;;;;;;;20.64;46.80;102219.31;5002328;28;4312;-69
2023/05/26 09:13:55;;;;;;;;;;;;;;;20.71;46.58;102221.22;5002269;28;4132;-70
2023/05/26 09:16:25;;;;;;;;;;;;;;;20.80;46.70;102220.41;5006412;28;4366;-70
2023/05/26 09:18:58;;;;;;;;;;;;;;;20.77;46.57;102218.75;5009257;28;4192;-70
2023/05/26 09:21:24;;;;;;;;;;;;;;;20.75;46.27;102221.47;5005501;28;4042;-69
2023/05/26 09:23:55;;;;;;;;;;;;;;;20.75;45.87;102227.22;5008682;28;4189;-69
2023/05/26 09:26:25;;;;;;;;;;;;;;;20.81;45.77;102224.78;5004788;28;4028;-69
2023/05/26 09:28:52;;;;;;;;;;;;;;;20.86;46.45;102226.53;5000856;28;4218;-69
2023/05/26 09:31:18;;;;;;;;;;;;;;;20.89;46.69;102230.31;5006966;28;4176;-69
2023/05/26 09:33:48;;;;;;;;;;;;;;;20.90;47.09;102232.56;5009419;28;4245;-69
2023/05/26 09:36:14;;;;;;;;;;;;;;;20.92;47.09;102229.81;5009120;28;4179;-69
2023/05/26 09:38:41;;;;;;;;;;;;;;;20.97;46.97;102227.22;5007942;28;4180;-70
2023/05/26 09:41:07;;;;;;;;;;;;;;;20.96;47.44;102228.56;5009053;28;4351;-69
2023/05/26 09:43:34;;;;;;;;;;;;;;;20.98;47.23;102220.06;5004891;28;4730;-69
2023/05/26 09:46:00;;;;;;;;;;;;;;;20.99;47.42;102227.34;5012676;28;4126;-69
2023/05/26 09:48:27;;;;;;;;;;;;;;;21.00;47.45;102225.97;5003375;28;4143;-69
2023/05/26 09:50:53;;;;;;;;;;;;;;;21.00;47.32;102217.34;5003257;28;4199;-69
2023/05/26 09:53:20;;;;;;;;;;;;;;;21.01;47.47;102218.84;5007549;28;4101;-70
2023/05/26 09:55:46;;;;;;;;;;;;;;;20.99;47.41;102218.72;5005078;28;4474;-70
2023/05/26 09:58:12;;;;;;;;;;;;;;;21.01;47.61;102218.84;5004667;28;4146;-70
2023/05/26 10:00:40;;;;;;;;;;;;;;;21.04;47.44;102232.00;5012441;28;4331;-69
2023/05/26 10:03:06;;;;;;;;;;;;;;;21.05;47.38;102216.22;5011524;28;4176;-70
2023/05/26 10:05:33;;;;;;;;;;;;;;;21.05;47.55;102224.84;5009792;28;4017;-70
2023/05/26 10:08:00;;;;;;;;;;;;;;;21.03;47.75;102211.09;5010491;28;4139;-69
2023/05/26 10:10:28;;;;;;;;;;;;;;;21.07;47.67;102219.22;5015667;28;4538;-70
2023/05/26 10:12:54;;;;;;;;;;;;;;;21.07;47.97;102213.47;5011132;28;4283;-69
2023/05/26 10:15:21;;;;;;;;;;;;;;;21.07;47.99;102208.47;5011448;28;4225;-70
2023/05/26 10:17:47;;;;;;;;;;;;;;;21.06;47.93;102209.84;5009329;28;3984;-69
2023/05/26 10:20:14;;;;;;;;;;;;;;;21.09;48.18;102207.84;5007971;28;4088;-69
2023/05/26 10:22:54;;;;;;;;;;;;;;;21.09;48.17;102202.09;5008385;28;3948;-70
2023/05/26 10:25:26;;;;;;;;;;;;;;;21.10;48.29;102204.34;5009448;28;3996;-70
2023/05/26 10:27:56;;;;;;;;;;;;;;;21.10;48.38;102210.13;5009739;28;4050;-69
2023/05/26 10:30:23;;;;;;;;;;;;;;;21.09;48.42;102213.59;5017473;28;4205;-69
2023/05/26 10:32:53;;;;;;;;;;;;;;;21.12;48.29;102212.38;5009704;28;3893;-69
2023/05/26 10:35:21;;;;;;;;;;;;;;;21.12;48.38;102209.50;5009636;28;4097;-69
2023/05/26 10:37:54;;;;;;;;;;;;;;;21.12;48.38;102213.13;5010310;28;3952;-69
2023/05/26 10:40:26;;;;;;;;;;;;;;;21.12;48.51;102209.50;5012293;28;4320;-69
2023/05/26 10:42:57;;;;;;;;;;;;;;;21.12;48.79;102212.38;5007838;28;4136;-69
2023/05/26 10:45:24;;;;;;;;;;;;;;;21.14;48.69;102215.38;5010840;28;4036;-70
2023/05/26 10:47:50;;;;;;;;;;;;;;;21.12;48.62;102210.25;5009369;28;4902;-69
2023/05/26 10:50:17;;;;;;;;;;;;;;;21.15;48.63;102199.59;5008875;28;4064;-69
2023/05/26 10:52:45;;;;;;;;;;;;;;;21.15;48.88;102205.38;5007472;28;4507;-69
2023/05/26 10:55:28;;;;;;;;;;;;;;;21.15;48.73;102205.38;5011858;28;3999;-69
2023/05/26 10:57:54;;;;;;;;;;;;;;;21.17;48.70;102208.38;5013246;28;4123;-69
2023/05/26 11:00:21;;;;;;;;;;;;;;;21.16;48.90;102212.63;5012530;28;3984;-69
2023/05/26 11:02:47;;;;;;;;;;;;;;;21.17;48.99;102211.25;5008064;28;4402;-69
2023/05/26 11:05:32;;;;;;;;;;;;;;;21.15;48.99;102208.25;5006743;28;4097;-69
2023/05/26 11:07:59;;;;;;;;;;;;;;;21.20;48.78;102203.50;5011758;28;4308;-69
2023/05/26 11:10:25;;;;;;;;;;;;;;;21.17;49.39;102201.88;5010874;28;4084;-69
2023/05/26 11:12:54;;;;;;;;;;;;;;;21.18;49.42;102209.88;5008599;28;3988;-68
2023/05/26 11:15:24;;;;;;;;;;;;;;;21.22;49.48;102209.41;5012529;28;4171;-69
2023/05/26 11:18:01;;;;;;;;;;;;;;;21.20;49.53;102207.13;5012143;28;4503;-68
2023/05/26 11:20:27;;;;;;;;;;;;;;;21.21;49.81;102197.13;5010007;28;4276;-69
2023/05/26 11:22:54;;;;;;;;;;;;;;;21.23;49.68;102194.34;5008771;28;3980;-68
2023/05/26 11:25:20;;;;;;;;;;;;;;;21.22;49.85;102210.13;5009840;28;4037;-74
2023/05/26 11:27:50;;;;;;;;;;;;;;;21.23;49.41;102200.09;5009537;28;4070;-65
2023/05/26 11:30:17;;;;;;;;;;;;;;;21.27;49.45;102193.88;5008295;28;4299;-67
2023/05/26 11:32:50;;;;;;;;;;;;;;;21.25;49.61;102191.59;5022335;28;4149;-68
2023/05/26 11:35:36;;;;;;;;;;;;;;;21.25;49.55;102185.84;5007871;28;4117;-68
2023/05/26 11:38:03;;;;;;;;;;;;;;;21.25;49.59;102190.84;5007584;28;4203;-68
2023/05/26 11:40:29;;;;;;;;;;;;;;;21.28;49.54;102189.59;5012326;28;4003;-68
2023/05/26 11:42:56;;;;;;;;;;;;;;;21.27;49.66;102200.38;5010868;28;4151;-68
2023/05/26 11:45:22;;;;;;;;;;;;;;;21.27;49.91;102200.38;5012543;28;4506;-68
2023/05/26 11:47:49;;;;;;;;;;;;;;;21.30;49.55;102204.91;5012471;28;4351;-68
2023/05/26 11:50:15;;;;;;;;;;;;;;;21.29;49.63;102202.66;5008631;28;4202;-69
2023/05/26 11:52:48;;;;;;;;;;;;;;;21.27;49.81;102200.38;5008468;28;4004;-68
2023/05/26 11:55:17;;;;;;;;;;;;;;;21.29;49.76;102196.88;5004328;28;4241;-68
2023/05/26 11:57:45;;;;;;;;;;;;;;;21.30;49.65;102199.16;5009006;28;4153;-68
2023/05/26 12:00:12;;;;;;;;;;;;;;;21.33;49.62;102197.88;5006135;28;4066;-68
2023/05/26 12:02:38;;;;;;;;;;;;;;;21.31;49.93;102194.88;5006308;28;4045;-68
2023/05/26 12:05:17;;;;;;;;;;;;;;;21.32;49.79;102202.13;5006104;28;4114;-68
2023/05/26 12:07:44;;;;;;;;;;;;;;;21.31;49.97;102199.91;5012151;28;4086;-68
2023/05/26 12:10:10;;;;;;;;;;;;;;;21.32;50.16;102192.75;5009108;28;4021;-68
2023/05/26 12:12:46;;;;;;;;;;;;;;;21.36;49.92;102195.13;5005438;28;4143;-68
2023/05/26 12:15:13;;;;;;;;;;;;;;;21.34;50.05;102198.63;5010604;28;4072;-68
2023/05/26 12:17:39;;;;;;;;;;;;;;;21.34;50.32;102182.09;5008719;28;4142;-68
2023/05/26 12:20:06;;;;;;;;;;;;;;;21.37;50.25;102194.50;5009652;28;4224;-68
2023/05/26 12:22:51;;;;;;;;;;;;;;;21.37;50.71;102190.88;5015446;28;4498;-68
2023/05/26 12:25:22;;;;;;;;;;;;;;;21.38;50.31;102195.28;5009777;28;4197;-68
2023/05/26 12:27:49;;;;;;;;;;;;;;;21.38;50.72;102189.50;5007372;28;4312;-68
2023/05/26 12:30:16;;;;;;;;;;;;;;;21.40;50.61;102189.66;5009346;28;4154;-68
2023/05/26 12:32:43;;;;;;;;;;;;;;;21.39;50.74;102194.63;5005599;28;4198;-68
2023/05/26 12:35:09;;;;;;;;;;;;;;;21.41;50.80;102185.41;5004039;28;4183;-68
2023/05/26 12:37:36;;;;;;;;;;;;;;;21.41;51.11;102189.03;5011624;28;4259;-68
2023/05/26 12:40:02;;;;;;;;;;;;;;;21.43;51.08;102194.19;5008478;28;4157;-68
2023/05/26 12:42:29;;;;;;;;;;;;;;;21.41;51.28;102194.03;5007182;28;4498;-68
2023/05/26 12:44:55;;;;;;;;;;;;;;;21.44;51.30;102181.25;5009412;28;4186;-68
2023/05/26 12:47:22;;;;;;;;;;;;;;;21.45;51.31;102191.44;5008290;28;4005;-68
2023/05/26 12:49:48;;;;;;;;;;;;;;;21.44;51.70;102184.13;5013009;28;4098;-67
2023/05/26 12:52:15;;;;;;;;;;;;;;;21.46;51.41;102175.63;5011612;28;4195;-68